Cornerville, Arkansas
Current Conditions -  °F | °C
As of 7:53 PM on Thursday 20 Nov 2014 (Local Time) from KPBF Reporting Station
Overcast Overcast  
Wind Chill: 46°   Ceiling: 5500
Heat Index: 48°   Visibility: 10mi
Dew Point: 41°   Wind: 5mph
Humidity: 77%   Direction: 90°E
Pressure: 30.17"   Gusts: NA
Location:  33.924°N, 91.8685°W
Report Text: KPBF 210153Z AUTO 09004KT 10SM OVC055 09/05 A3017 RMK AO2 SLP218 T00890050
Loading
Personal Weather Stations






























Interactive Weather Map New forecast layout! Learn more

10-Day Weather Forecast

Advertisements
Track Severe Weather on mobile